createdAt,value
2022-07-29T00:00:41.119Z,6.30
2022-07-29T00:03:15.605Z,6.03
2022-07-29T00:05:43.581Z,6.75
2022-07-29T00:08:12.720Z,6.82
2022-07-29T00:10:46.495Z,6.60
2022-07-29T00:13:34.478Z,6.70
2022-07-29T00:16:09.517Z,6.35
2022-07-29T00:18:38.115Z,6.38
2022-07-29T00:21:05.783Z,5.78
2022-07-29T00:23:39.553Z,5.90
2022-07-29T00:26:08.368Z,6.80
2022-07-29T00:28:36.027Z,6.30
2022-07-29T00:31:10.560Z,6.20
2022-07-29T00:33:38.194Z,6.22
2022-07-29T00:36:05.988Z,6.40
2022-07-29T00:38:40.508Z,6.10
2022-07-29T00:41:07.934Z,6.03
2022-07-29T00:43:35.432Z,6.25
2022-07-29T00:46:09.550Z,5.93
2022-07-29T00:48:37.218Z,5.28
2022-07-29T00:51:06.681Z,5.50
2022-07-29T00:53:41.552Z,5.50
2022-07-29T00:56:09.089Z,5.55
2022-07-29T00:58:36.993Z,5.38
2022-07-29T01:01:10.891Z,5.28
2022-07-29T01:03:38.501Z,5.57
2022-07-29T01:06:06.609Z,5.68
2022-07-29T01:08:41.778Z,5.82
2022-07-29T01:11:10.382Z,5.57
2022-07-29T01:13:53.557Z,5.30
2022-07-29T01:16:39.920Z,4.82
2022-07-29T01:19:55.576Z,5.13
2022-07-29T01:23:02.065Z,5.15
2022-07-29T01:26:26.558Z,5.28
2022-07-29T01:28:59.754Z,5.35
2022-07-29T01:31:58.554Z,5.68
2022-07-29T01:34:51.431Z,4.78
2022-07-29T01:37:46.533Z,5.13
2022-07-29T01:40:32.039Z,4.95
2022-07-29T01:43:21.510Z,4.32
2022-07-29T01:46:01.460Z,4.00
2022-07-29T01:48:47.679Z,4.50
2022-07-29T01:51:21.439Z,3.72
2022-07-29T01:54:33.526Z,3.50
2022-07-29T01:57:02.709Z,3.80
2022-07-29T01:59:31.559Z,3.95
2022-07-29T02:02:06.615Z,3.60
2022-07-29T02:04:36.886Z,3.50
2022-07-29T02:07:14.538Z,3.50
2022-07-29T02:09:43.539Z,3.63
2022-07-29T02:12:29.591Z,3.85
2022-07-29T02:15:08.294Z,3.58
2022-07-29T02:17:58.566Z,3.75
2022-07-29T02:20:28.848Z,3.53
2022-07-29T02:23:07.509Z,3.42
2022-07-29T02:25:38.095Z,3.30
2022-07-29T02:28:14.558Z,3.28
2022-07-29T02:30:50.634Z,2.42
2022-07-29T02:33:26.550Z,3.13
2022-07-29T02:35:54.986Z,3.20
2022-07-29T02:38:50.587Z,2.78
2022-07-29T02:41:36.386Z,3.30
2022-07-29T02:44:21.547Z,2.92
2022-07-29T02:47:16.830Z,3.33
2022-07-29T02:50:16.639Z,3.20
2022-07-29T02:53:28.275Z,3.03
2022-07-29T02:56:07.554Z,2.97
2022-07-29T02:58:40.085Z,3.40
2022-07-29T03:01:27.548Z,3.13
2022-07-29T03:03:56.425Z,3.35
2022-07-29T03:06:30.968Z,3.63
2022-07-29T03:09:15.559Z,3.10
2022-07-29T03:11:49.652Z,3.75
2022-07-29T03:14:34.594Z,3.40
2022-07-29T03:17:03.361Z,3.90
2022-07-29T03:19:32.058Z,4.00
2022-07-29T03:22:07.572Z,3.95
2022-07-29T03:24:36.971Z,4.20
2022-07-29T03:27:06.411Z,4.38
2022-07-29T03:29:40.555Z,3.97
2022-07-29T03:32:12.247Z,4.70
2022-07-29T03:34:51.633Z,4.88
2022-07-29T03:37:19.199Z,4.38
2022-07-29T03:39:48.350Z,4.30
2022-07-29T03:42:24.597Z,4.90
2022-07-29T03:44:58.678Z,4.70
2022-07-29T03:47:49.586Z,4.97
2022-07-29T03:50:21.533Z,4.80
2022-07-29T03:52:57.555Z,5.10
2022-07-29T03:55:26.142Z,5.32
2022-07-29T03:57:55.882Z,4.90
2022-07-29T04:00:33.574Z,5.43
2022-07-29T04:03:02.217Z,5.38
2022-07-29T04:05:29.801Z,5.80
2022-07-29T04:08:07.601Z,6.22
2022-07-29T04:10:35.843Z,5.03
2022-07-29T04:13:17.598Z,5.50
2022-07-29T04:15:52.056Z,5.38
2022-07-29T04:18:27.572Z,5.15
2022-07-29T04:20:55.225Z,5.35
2022-07-29T04:23:23.793Z,5.32
2022-07-29T04:25:57.806Z,5.63
2022-07-29T04:28:27.540Z,5.55
2022-07-29T04:30:55.001Z,5.47
2022-07-29T04:33:28.608Z,5.72
2022-07-29T04:35:56.042Z,5.43
2022-07-29T04:38:36.610Z,4.88
2022-07-29T04:41:06.190Z,4.95
2022-07-29T04:43:37.591Z,5.15
2022-07-29T04:46:14.018Z,5.60
2022-07-29T04:48:41.684Z,5.38
2022-07-29T04:51:09.328Z,5.28
2022-07-29T04:53:44.959Z,5.55
2022-07-29T04:56:12.611Z,6.30
2022-07-29T04:58:40.711Z,5.57
2022-07-29T05:01:14.997Z,6.30
2022-07-29T05:03:42.962Z,6.05
2022-07-29T05:06:11.730Z,5.90
2022-07-29T05:08:45.924Z,6.05
2022-07-29T05:11:16.944Z,5.97
2022-07-29T05:14:00.971Z,5.68
2022-07-29T05:16:36.210Z,5.75
2022-07-29T05:19:14.167Z,5.68
2022-07-29T05:21:42.500Z,5.35
2022-07-29T05:24:10.053Z,7.45
2022-07-29T05:26:43.934Z,5.60
2022-07-29T05:29:43.842Z,5.38
2022-07-29T05:32:05.906Z,5.15
2022-07-29T05:34:33.580Z,4.95
2022-07-29T05:37:01.585Z,5.47
2022-07-29T05:39:47.480Z,5.28
2022-07-29T05:42:17.861Z,5.47
2022-07-29T05:44:51.975Z,5.88
2022-07-29T05:47:19.783Z,5.40
2022-07-29T05:49:47.405Z,6.38
2022-07-29T05:52:21.953Z,5.55
2022-07-29T05:54:50.101Z,5.57
2022-07-29T05:57:19.214Z,5.25
2022-07-29T05:59:53.955Z,5.38
2022-07-29T06:02:21.529Z,5.40
2022-07-29T06:04:49.767Z,5.20
2022-07-29T06:07:23.910Z,5.22
2022-07-29T06:09:51.360Z,4.97
2022-07-29T06:12:18.824Z,4.70
2022-07-29T06:14:59.959Z,5.45
2022-07-29T06:17:28.769Z,5.05
2022-07-29T06:19:56.233Z,5.35
2022-07-29T06:22:29.941Z,5.10
2022-07-29T06:24:57.416Z,4.95
2022-07-29T06:27:24.964Z,5.20
2022-07-29T06:29:58.955Z,4.55
2022-07-29T06:32:27.495Z,5.10
2022-07-29T06:35:17.754Z,5.07
2022-07-29T06:37:50.051Z,4.82
2022-07-29T06:40:41.526Z,4.93
2022-07-29T06:43:15.960Z,5.10
2022-07-29T06:45:44.025Z,4.60
2022-07-29T06:48:11.820Z,4.90
2022-07-29T06:50:45.979Z,3.95
2022-07-29T06:53:13.913Z,3.38
2022-07-29T06:55:41.431Z,4.38
2022-07-29T06:58:16.955Z,4.80
2022-07-29T07:00:45.820Z,4.50
2022-07-29T07:03:13.918Z,5.03
2022-07-29T07:05:48.016Z,4.55
2022-07-29T07:08:17.239Z,4.70
2022-07-29T07:10:45.197Z,4.70
2022-07-29T07:13:20.012Z,3.38
2022-07-29T07:15:49.405Z,3.10
2022-07-29T07:18:17.942Z,3.42
2022-07-29T07:20:52.138Z,3.60
2022-07-29T07:23:19.726Z,3.70
2022-07-29T07:25:47.257Z,2.75
2022-07-29T07:28:24.534Z,3.20
2022-07-29T07:30:58.453Z,4.15
2022-07-29T07:33:33.352Z,3.85
2022-07-29T07:36:01.363Z,3.13
2022-07-29T07:38:29.502Z,3.45
2022-07-29T07:41:04.217Z,3.45
2022-07-29T07:43:32.812Z,3.63
2022-07-29T07:46:00.752Z,3.80
2022-07-29T07:48:35.189Z,3.05
2022-07-29T07:51:04.897Z,3.25
2022-07-29T07:53:32.859Z,3.33
2022-07-29T07:56:10.968Z,3.63
2022-07-29T07:58:40.239Z,3.30
2022-07-29T08:01:15.187Z,4.07
2022-07-29T08:03:44.154Z,3.15
2022-07-29T08:06:11.927Z,3.70
2022-07-29T08:08:46.352Z,3.85
2022-07-29T08:11:14.442Z,3.60
2022-07-29T08:14:01.998Z,3.53
2022-07-29T08:16:29.920Z,3.70
2022-07-29T08:18:58.707Z,3.60
2022-07-29T08:21:33.135Z,3.85
2022-07-29T08:24:19.406Z,3.85
2022-07-29T08:26:54.216Z,3.60
2022-07-29T08:29:22.119Z,3.42
2022-07-29T08:31:49.958Z,3.60
2022-07-29T08:34:28.153Z,3.60
2022-07-29T08:36:57.088Z,3.83
2022-07-29T08:39:32.106Z,3.40
2022-07-29T08:42:00.200Z,3.58
2022-07-29T08:44:30.884Z,3.70
2022-07-29T08:47:06.098Z,3.30
2022-07-29T08:49:37.003Z,3.72
2022-07-29T08:52:05.180Z,3.92
2022-07-29T08:54:40.108Z,3.67
2022-07-29T08:57:08.223Z,3.40
2022-07-29T08:59:38.724Z,3.70
2022-07-29T09:02:27.051Z,3.40
2022-07-29T09:05:03.234Z,3.90
2022-07-29T09:07:38.197Z,3.97
2022-07-29T09:10:07.085Z,3.50
2022-07-29T09:12:38.052Z,3.50
2022-07-29T09:15:15.074Z,3.92
2022-07-29T09:17:44.799Z,3.88
2022-07-29T09:20:24.082Z,3.80
2022-07-29T09:22:54.641Z,3.60
2022-07-29T09:25:46.067Z,3.58
2022-07-29T09:28:18.889Z,3.80
2022-07-29T09:31:01.136Z,3.60
2022-07-29T09:33:36.935Z,3.70
2022-07-29T09:36:17.139Z,3.78
2022-07-29T09:39:02.337Z,3.50
2022-07-29T09:41:37.254Z,3.72
2022-07-29T09:44:07.084Z,3.45
2022-07-29T09:46:35.741Z,3.40
2022-07-29T09:49:22.295Z,3.38
2022-07-29T09:52:02.097Z,3.65
2022-07-29T09:54:42.105Z,3.30
2022-07-29T09:57:23.689Z,3.40
2022-07-29T10:00:10.177Z,3.50
2022-07-29T10:02:40.091Z,3.53
2022-07-29T10:05:36.438Z,3.42
2022-07-29T10:08:06.088Z,3.03
2022-07-29T10:10:43.146Z,2.95
2022-07-29T10:13:20.241Z,3.47
2022-07-29T10:16:01.137Z,3.10
2022-07-29T10:18:29.909Z,3.67
2022-07-29T10:20:58.090Z,3.33
2022-07-29T10:23:46.346Z,3.65
2022-07-29T10:26:16.763Z,3.10
2022-07-29T10:28:51.084Z,3.58
2022-07-29T10:31:32.615Z,3.40
2022-07-29T10:34:25.107Z,3.65
2022-07-29T10:37:23.564Z,4.00
2022-07-29T10:40:37.095Z,3.58
2022-07-29T10:43:31.802Z,3.30
2022-07-29T10:46:08.206Z,3.38
2022-07-29T10:48:36.997Z,3.53
2022-07-29T10:51:16.174Z,3.40
2022-07-29T10:53:51.831Z,3.78
2022-07-29T10:56:43.257Z,3.60
2022-07-29T10:59:22.793Z,4.10
2022-07-29T11:02:28.006Z,3.30
2022-07-29T11:04:52.985Z,3.45
2022-07-29T11:07:27.052Z,3.70
2022-07-29T11:10:14.123Z,3.30
2022-07-29T11:12:52.053Z,3.63
2022-07-29T11:15:32.198Z,3.58
2022-07-29T11:18:08.106Z,3.03
2022-07-29T11:20:51.149Z,3.70
2022-07-29T11:23:27.068Z,3.45
2022-07-29T11:26:23.020Z,3.10
2022-07-29T11:29:00.138Z,3.67
2022-07-29T11:31:34.415Z,3.47
2022-07-29T11:34:33.061Z,3.20
2022-07-29T11:37:14.299Z,3.42
2022-07-29T11:40:15.060Z,3.50
2022-07-29T11:42:47.352Z,3.60
2022-07-29T11:45:43.081Z,2.88
2022-07-29T11:48:28.955Z,3.40
2022-07-29T11:51:06.129Z,3.53
2022-07-29T11:53:36.847Z,3.63
2022-07-29T11:56:17.103Z,2.92
2022-07-29T11:58:45.830Z,3.20
2022-07-29T12:01:26.165Z,3.00
2022-07-29T12:07:03.427Z,3.10
2022-07-29T12:07:03.898Z,3.28
2022-07-29T12:09:40.264Z,3.13
2022-07-29T12:12:16.204Z,2.97
2022-07-29T12:14:50.484Z,3.40
2022-07-29T12:17:36.182Z,3.20
2022-07-29T12:20:07.064Z,3.45
2022-07-29T12:22:49.077Z,3.60
2022-07-29T12:25:33.143Z,3.15
2022-07-29T12:28:10.075Z,3.08
2022-07-29T12:30:49.448Z,3.10
2022-07-29T12:33:37.118Z,3.60
2022-07-29T12:36:07.664Z,3.20
2022-07-29T12:38:37.024Z,3.53
2022-07-29T12:41:12.108Z,3.28
2022-07-29T12:43:56.541Z,3.40
2022-07-29T12:46:31.174Z,3.63
2022-07-29T12:48:59.748Z,3.25
2022-07-29T12:51:46.146Z,3.05
2022-07-29T12:54:17.243Z,3.03
2022-07-29T12:56:53.112Z,3.33
2022-07-29T12:59:22.866Z,3.03
2022-07-29T13:01:52.780Z,3.47
2022-07-29T13:04:40.078Z,3.22
2022-07-29T13:07:08.595Z,2.85
2022-07-29T13:09:47.094Z,2.53
2022-07-29T13:12:22.271Z,2.55
2022-07-29T13:15:03.120Z,2.60
2022-07-29T13:17:49.545Z,2.97
2022-07-29T13:20:24.154Z,2.35
2022-07-29T13:22:52.135Z,2.30
2022-07-29T13:25:52.163Z,2.47
2022-07-29T13:28:19.903Z,2.20
2022-07-29T13:30:47.769Z,2.50
2022-07-29T13:33:23.110Z,2.40
2022-07-29T13:35:51.063Z,2.30
2022-07-29T13:38:18.696Z,2.40
2022-07-29T13:40:53.200Z,2.30
2022-07-29T13:43:20.822Z,2.35
2022-07-29T13:45:50.236Z,2.45
2022-07-29T13:48:24.123Z,2.30
2022-07-29T13:50:51.985Z,2.33
2022-07-29T13:53:19.782Z,2.30
2022-07-29T13:56:01.205Z,2.17
2022-07-29T13:58:28.913Z,2.15
2022-07-29T14:00:57.988Z,2.47
2022-07-29T14:03:32.119Z,2.10
2022-07-29T14:06:01.368Z,2.20
2022-07-29T14:08:30.958Z,2.10
2022-07-29T14:11:05.126Z,2.30
2022-07-29T14:13:53.295Z,2.20
2022-07-29T14:16:27.247Z,2.35
2022-07-29T14:18:55.198Z,2.45
2022-07-29T14:21:25.721Z,2.00
2022-07-29T14:24:02.176Z,2.10
2022-07-29T14:26:41.728Z,2.20
2022-07-29T14:29:20.112Z,2.35
2022-07-29T14:31:47.764Z,2.42
2022-07-29T14:34:16.516Z,2.00
2022-07-29T14:36:51.080Z,2.33
2022-07-29T14:39:18.762Z,2.50
2022-07-29T14:41:46.346Z,2.28
2022-07-29T14:44:20.172Z,2.50
2022-07-29T14:46:47.935Z,2.25
2022-07-29T14:49:17.238Z,2.47
2022-07-29T14:51:52.205Z,2.20
2022-07-29T14:54:19.832Z,2.20
2022-07-29T14:56:50.288Z,2.10
2022-07-29T14:59:25.095Z,2.60
2022-07-29T15:01:52.739Z,2.55
2022-07-29T15:04:20.335Z,2.17
2022-07-29T15:06:55.242Z,2.50
2022-07-29T15:09:24.031Z,2.65
2022-07-29T15:11:51.988Z,2.40
2022-07-29T15:14:26.126Z,2.47
2022-07-29T15:16:53.901Z,2.78
2022-07-29T15:19:21.563Z,2.65
2022-07-29T15:21:59.232Z,2.83
2022-07-29T15:24:27.614Z,2.60
2022-07-29T15:27:11.780Z,2.47
2022-07-29T15:29:39.672Z,2.80
2022-07-29T15:32:23.102Z,2.80
2022-07-29T15:34:50.798Z,3.03
2022-07-29T15:37:28.019Z,2.40
2022-07-29T15:40:15.865Z,2.92
2022-07-29T15:42:50.184Z,2.58
2022-07-29T15:45:17.978Z,2.90
2022-07-29T15:47:45.529Z,2.80
2022-07-29T15:50:23.336Z,2.63
2022-07-29T15:52:51.112Z,2.58
2022-07-29T15:55:19.093Z,2.25
2022-07-29T15:57:57.184Z,2.83
2022-07-29T16:00:27.870Z,2.58
2022-07-29T16:03:02.227Z,2.42
2022-07-29T16:05:30.031Z,2.30
2022-07-29T16:07:59.735Z,2.55
2022-07-29T16:10:34.542Z,2.67
2022-07-29T16:13:02.185Z,2.50
2022-07-29T16:15:43.127Z,2.47
2022-07-29T16:18:10.766Z,2.35
2022-07-29T16:20:38.620Z,2.55
2022-07-29T16:23:14.182Z,2.47
2022-07-29T16:25:59.189Z,2.50
2022-07-29T16:28:35.176Z,2.83
2022-07-29T16:31:03.131Z,2.38
2022-07-29T16:33:55.278Z,2.67
2022-07-29T16:36:26.187Z,2.50
2022-07-29T16:38:54.285Z,2.80
2022-07-29T16:41:22.017Z,2.50
2022-07-29T16:43:56.191Z,2.72
2022-07-29T16:46:24.304Z,2.83
2022-07-29T16:48:53.524Z,2.45
2022-07-29T16:51:28.179Z,2.30
2022-07-29T16:53:56.188Z,2.63
2022-07-29T16:56:23.702Z,2.42
2022-07-29T16:58:58.173Z,2.33
2022-07-29T17:01:25.736Z,2.83
2022-07-29T17:04:15.228Z,2.95
2022-07-29T17:06:42.999Z,3.08
2022-07-29T17:09:13.108Z,2.50
2022-07-29T17:11:53.111Z,2.50
2022-07-29T17:14:44.135Z,2.47
2022-07-29T17:17:20.895Z,2.40
2022-07-29T17:20:07.205Z,2.40
2022-07-29T17:22:42.156Z,2.65
2022-07-29T17:25:10.760Z,2.13
2022-07-29T17:28:00.490Z,2.25
2022-07-29T17:30:29.229Z,2.40
2022-07-29T17:33:03.204Z,2.22
2022-07-29T17:35:49.176Z,2.25
2022-07-29T17:38:23.206Z,2.20
2022-07-29T17:40:51.010Z,2.30
2022-07-29T17:43:18.616Z,2.10
2022-07-29T17:45:52.220Z,2.40
2022-07-29T17:48:20.433Z,2.28
2022-07-29T17:50:49.164Z,2.25
2022-07-29T17:53:23.289Z,2.13
2022-07-29T17:55:50.912Z,2.00
2022-07-29T17:58:18.749Z,2.17
2022-07-29T18:00:53.389Z,1.95
2022-07-29T18:03:21.336Z,2.25
2022-07-29T18:05:49.530Z,2.05
2022-07-29T18:08:24.236Z,2.13
2022-07-29T18:10:52.088Z,1.90
2022-07-29T18:13:21.257Z,2.17
2022-07-29T18:15:59.990Z,1.80
2022-07-29T18:18:29.899Z,2.28
2022-07-29T18:21:04.267Z,1.90
2022-07-29T18:23:32.202Z,2.75
2022-07-29T18:26:00.058Z,1.98
2022-07-29T18:28:34.299Z,1.73
2022-07-29T18:31:02.726Z,1.90
2022-07-29T18:33:32.665Z,2.20
2022-07-29T18:36:11.362Z,2.33
2022-07-29T18:38:41.220Z,2.10
2022-07-29T18:41:15.283Z,1.80
2022-07-29T18:43:43.228Z,2.28
2022-07-29T18:46:11.094Z,2.10
2022-07-29T18:48:47.347Z,2.00
2022-07-29T18:51:15.235Z,1.88
2022-07-29T18:53:44.499Z,1.92
2022-07-29T18:56:19.497Z,2.10
2022-07-29T18:58:47.639Z,2.03
2022-07-29T19:01:17.310Z,1.42
2022-07-29T19:03:51.503Z,1.83
2022-07-29T19:06:22.777Z,2.00
2022-07-29T19:09:00.456Z,1.83
2022-07-29T19:11:28.042Z,1.73
2022-07-29T19:13:55.529Z,1.70
2022-07-29T19:16:30.237Z,2.15
2022-07-29T19:18:57.967Z,2.10
2022-07-29T19:21:25.846Z,2.28
2022-07-29T19:24:06.600Z,1.80
2022-07-29T19:26:36.801Z,1.85
2022-07-29T19:29:11.412Z,1.85
2022-07-29T19:31:39.622Z,2.15
2022-07-29T19:34:08.638Z,2.30
2022-07-29T19:36:43.300Z,2.35
2022-07-29T19:39:11.624Z,2.00
2022-07-29T19:41:39.301Z,2.20
2022-07-29T19:44:13.266Z,1.95
2022-07-29T19:46:47.607Z,2.20
2022-07-29T19:49:22.365Z,1.90
2022-07-29T19:51:49.947Z,2.15
2022-07-29T19:54:18.355Z,1.80
2022-07-29T19:56:52.291Z,2.45
2022-07-29T19:59:24.607Z,2.20
2022-07-29T20:01:52.190Z,2.00
2022-07-29T20:04:26.460Z,2.20
2022-07-29T20:06:56.607Z,2.13
2022-07-29T20:09:24.364Z,2.10
2022-07-29T20:11:58.214Z,2.40
2022-07-29T20:14:32.352Z,1.98
2022-07-29T20:17:13.230Z,2.22
2022-07-29T20:19:42.657Z,1.95
2022-07-29T20:22:10.522Z,2.10
2022-07-29T20:24:44.239Z,1.65
2022-07-29T20:27:13.400Z,2.00
2022-07-29T20:29:41.295Z,2.03
2022-07-29T20:32:16.205Z,2.20
2022-07-29T20:34:43.709Z,2.03
2022-07-29T20:37:13.325Z,2.13
2022-07-29T20:39:49.218Z,1.88
2022-07-29T20:42:17.070Z,2.05
2022-07-29T20:44:44.746Z,2.20
2022-07-29T20:47:18.216Z,2.00
2022-07-29T20:49:45.660Z,2.22
2022-07-29T20:52:13.287Z,2.65
2022-07-29T20:54:47.219Z,2.20
2022-07-29T20:57:14.842Z,2.15
2022-07-29T20:59:45.814Z,2.03
2022-07-29T21:02:20.237Z,2.00
2022-07-29T21:04:47.838Z,2.42
2022-07-29T21:07:15.302Z,2.40
2022-07-29T21:09:49.237Z,1.90
2022-07-29T21:12:17.651Z,2.00
2022-07-29T21:14:59.213Z,1.90
2022-07-29T21:17:40.513Z,1.80
2022-07-29T21:20:15.208Z,1.95
2022-07-29T21:22:43.088Z,1.90
2022-07-29T21:25:11.218Z,2.00
2022-07-29T21:28:04.201Z,2.03
2022-07-29T21:30:31.849Z,1.90
2022-07-29T21:32:59.682Z,2.20
2022-07-29T21:38:22.317Z,2.00
2022-07-29T21:40:58.250Z,1.90
2022-07-29T21:43:26.768Z,2.38
2022-07-29T21:45:57.533Z,2.10
2022-07-29T21:48:33.236Z,2.08
2022-07-29T21:51:01.017Z,2.25
2022-07-29T21:53:28.632Z,2.10
2022-07-29T21:56:02.260Z,2.15
2022-07-29T21:58:30.092Z,2.03
2022-07-29T22:00:57.608Z,1.95
2022-07-29T22:03:31.281Z,1.77
2022-07-29T22:05:58.867Z,2.20
2022-07-29T22:08:26.299Z,1.88
2022-07-29T22:11:16.220Z,2.10
2022-07-29T22:13:50.423Z,1.75
2022-07-29T22:16:33.796Z,2.28
2022-07-29T22:19:07.449Z,1.80
2022-07-29T22:21:41.258Z,2.03
2022-07-29T22:24:10.370Z,2.17
2022-07-29T22:26:38.471Z,2.38
2022-07-29T22:29:13.306Z,2.00
2022-07-29T22:31:40.834Z,1.98
2022-07-29T22:34:12.769Z,2.08
2022-07-29T22:36:48.243Z,2.42
2022-07-29T22:39:15.770Z,2.60
2022-07-29T22:41:43.845Z,2.92
2022-07-29T22:44:18.326Z,2.70
2022-07-29T22:46:45.869Z,3.25
2022-07-29T22:49:13.399Z,3.17
2022-07-29T22:51:47.245Z,2.95
2022-07-29T22:54:14.970Z,3.20
2022-07-29T22:56:42.430Z,3.10
2022-07-29T22:59:16.258Z,3.30
2022-07-29T23:01:44.082Z,3.50
2022-07-29T23:04:11.642Z,3.60
2022-07-29T23:06:46.287Z,3.53
2022-07-29T23:09:13.704Z,3.83
2022-07-29T23:11:41.368Z,3.72
2022-07-29T23:14:16.283Z,3.28
2022-07-29T23:16:50.364Z,3.67
2022-07-29T23:19:31.289Z,3.58
2022-07-29T23:21:58.933Z,3.55
2022-07-29T23:24:26.460Z,3.42
2022-07-29T23:27:00.656Z,3.97
2022-07-29T23:29:28.268Z,3.58
2022-07-29T23:31:55.815Z,3.35
2022-07-29T23:34:30.287Z,2.97
2022-07-29T23:36:57.897Z,3.20
2022-07-29T23:39:26.081Z,3.33
2022-07-29T23:42:00.292Z,3.30
2022-07-29T23:44:27.824Z,3.30
2022-07-29T23:46:55.302Z,2.80
2022-07-29T23:49:29.265Z,3.10
2022-07-29T23:51:56.741Z,3.40
2022-07-29T23:54:37.338Z,2.88
2022-07-29T23:57:04.839Z,3.38
2022-07-29T23:59:32.526Z,3.25
